Time;durP1;ratioP1;P1;durP2;ratioP2;P2;SDS_P1;SDS_P2;PMS_P1;PMS_P2;Temp;Humidity;BMP_temperature;BMP_pressure;BME280_temperature;BME280_humidity;BME280_pressure;Samples;Min_cycle;Max_cycle;Signal;HPM_P1;HPM_P2
2022/01/31 05:01:48;;;;;;;10.70;3.45;;;;;;;6.21;40.15;100187.03;5606202;31;79677;-56
2022/01/31 05:04:51;;;;;;;13.23;2.60;;;;;;;6.21;40.15;100187.03;5584301;31;33556;-56
2022/01/31 05:07:55;;;;;;;11.60;3.10;;;;;;;5.80;40.61;100188.56;5583116;32;33307;-56
2022/01/31 05:10:57;;;;;;;17.00;3.70;;;;;;;5.92;44.53;100199.00;5583942;31;33946;-56
2022/01/31 05:13:59;;;;;;;15.50;3.03;;;;;;;6.10;40.52;100210.13;5583568;31;34346;-56
2022/01/31 05:17:02;;;;;;;11.52;3.30;;;;;;;6.33;39.90;100235.56;5583484;32;34288;-55
2022/01/31 05:20:05;;;;;;;9.48;2.65;;;;;;;6.30;40.14;100229.97;5583200;31;34158;-56
2022/01/31 05:23:08;;;;;;;14.75;3.58;;;;;;;6.41;39.79;100222.84;5592530;31;34344;-55
2022/01/31 05:26:10;;;;;;;10.90;2.62;;;;;;;6.33;39.74;100218.81;5602913;31;33783;-56
2022/01/31 05:29:12;;;;;;;17.27;3.50;;;;;;;6.42;39.67;100211.13;5602439;31;33635;-58
2022/01/31 05:32:19;;;;;;;14.13;3.30;;;;;;;6.28;40.12;100206.25;5599314;31;34161;-58
2022/01/31 05:35:21;;;;;;;15.82;3.45;;;;;;;6.40;42.71;100195.41;5601985;31;34394;-58
2022/01/31 05:38:23;;;;;;;13.82;4.40;;;;;;;6.54;40.99;100193.91;5600925;31;34463;-56
2022/01/31 05:41:26;;;;;;;15.20;3.92;;;;;;;6.59;39.38;100172.63;5583191;31;34246;-56
2022/01/31 05:44:28;;;;;;;16.25;3.58;;;;;;;6.56;39.71;100157.16;5575195;32;34398;-55
2022/01/31 05:47:30;;;;;;;14.68;3.60;;;;;;;6.58;39.71;100155.03;5563738;32;34390;-56
2022/01/31 05:50:32;;;;;;;14.38;3.60;;;;;;;6.58;40.36;100155.03;5563513;32;34099;-56
2022/01/31 05:53:34;;;;;;;14.02;3.42;;;;;;;6.46;39.94;100157.12;5563740;32;33649;-56
2022/01/31 05:56:36;;;;;;;13.07;3.67;;;;;;;6.46;40.50;100159.78;5563561;32;34444;-56
2022/01/31 05:59:40;;;;;;;11.15;3.67;;;;;;;6.32;41.00;100166.59;5565305;32;33809;-56
2022/01/31 06:02:42;;;;;;;12.30;2.70;;;;;;;6.11;41.54;100168.34;5579941;31;33678;-56
2022/01/31 06:05:45;;;;;;;14.05;2.85;;;;;;;6.01;41.38;100165.59;5582384;31;33415;-56
2022/01/31 06:08:47;;;;;;;18.60;4.00;;;;;;;6.07;41.65;100162.72;5583014;32;34313;-56
2022/01/31 06:11:50;;;;;;;12.10;3.55;;;;;;;6.26;49.08;100171.09;5574804;32;34395;-56
2022/01/31 06:14:53;;;;;;;14.80;3.30;;;;;;;6.62;44.14;100179.28;5567001;32;34250;-56
2022/01/31 06:17:55;;;;;;;17.05;4.53;;;;;;;6.65;42.37;100177.97;5550193;32;33620;-56
2022/01/31 06:21:03;;;;;;;17.15;4.53;;;;;;;6.56;41.75;100177.69;5550430;32;33550;-56
2022/01/31 06:24:09;;;;;;;13.60;4.28;;;;;;;6.63;45.91;100183.56;5564625;32;33611;-56
2022/01/31 06:27:12;;;;;;;15.20;3.80;;;;;;;6.68;42.50;100188.12;5568661;31;33968;-56
2022/01/31 06:30:14;;;;;;;15.18;3.83;;;;;;;6.87;51.01;100178.63;5569365;31;33443;-56
2022/01/31 06:33:19;;;;;;;14.52;4.10;;;;;;;7.00;41.26;100182.66;5569493;32;34378;-56
2022/01/31 06:36:23;;;;;;;19.40;4.12;;;;;;;7.04;42.00;100171.22;5568691;32;34304;-56
2022/01/31 06:39:25;;;;;;;13.68;3.65;;;;;;;7.03;48.21;100166.94;5569315;32;33563;-56
2022/01/31 06:42:28;;;;;;;15.82;3.67;;;;;;;6.81;41.83;100158.34;5569104;32;33750;-56
2022/01/31 06:45:30;;;;;;;11.70;3.53;;;;;;;6.86;41.47;100161.03;5568577;31;33590;-56
2022/01/31 06:48:36;;;;;;;17.12;4.60;;;;;;;6.66;43.14;100159.09;5568939;32;34313;-56
2022/01/31 06:51:38;;;;;;;22.75;4.93;;;;;;;6.68;42.14;100153.47;5568620;32;33590;-56
2022/01/31 06:54:43;;;;;;;14.75;3.62;;;;;;;6.73;42.10;100148.97;5568951;32;34583;-55
2022/01/31 06:57:46;;;;;;;18.00;4.47;;;;;;;6.54;42.77;100145.16;5568431;32;33789;-56
2022/01/31 07:00:49;;;;;;;17.77;4.32;;;;;;;6.54;42.87;100140.62;5567605;32;32917;-56
2022/01/31 07:03:53;;;;;;;18.87;4.68;;;;;;;6.54;43.17;100132.66;5568789;32;34414;-56
2022/01/31 07:06:56;;;;;;;13.82;4.18;;;;;;;6.35;42.70;100134.94;5568843;32;33834;-55
2022/01/31 07:10:02;;;;;;;14.63;3.55;;;;;;;6.35;42.82;100118.16;5569045;32;34341;-56
2022/01/31 07:13:22;;;;;;;19.50;4.43;;;;;;;6.32;43.11;100116.00;5568882;32;33853;-56
2022/01/31 07:16:24;;;;;;;11.20;3.95;;;;;;;6.43;43.27;100109.69;5568800;32;33602;-56
2022/01/31 07:19:30;;;;;;;19.30;3.80;;;;;;;6.47;43.80;100099.31;5567237;32;33797;-56
2022/01/31 07:22:37;;;;;;;14.30;4.00;;;;;;;6.65;50.14;100093.53;5559675;32;33261;-56
2022/01/31 07:25:39;;;;;;;13.57;3.90;;;;;;;6.96;45.28;100085.66;5549224;32;33574;-56
2022/01/31 07:28:42;;;;;;;20.98;4.53;;;;;;;6.85;42.76;100090.12;5564827;32;34242;-56
2022/01/31 07:31:45;;;;;;;17.50;4.32;;;;;;;7.02;43.46;100090.72;5552899;32;33523;-56
2022/01/31 07:34:50;;;;;;;17.98;4.40;;;;;;;7.04;44.83;100091.25;5567356;32;33331;-56
2022/01/31 07:37:53;;;;;;;23.58;4.22;;;;;;;6.98;42.95;100084.31;5564242;32;34335;-56
2022/01/31 07:40:57;;;;;;;24.73;5.50;;;;;;;6.99;44.35;100075.25;5552415;32;34236;-56
2022/01/31 07:44:00;;;;;;;14.45;4.03;;;;;;;7.18;42.66;100056.88;5566632;32;34153;-56
2022/01/31 07:47:04;;;;;;;19.35;4.47;;;;;;;7.15;42.35;100059.28;5568256;32;33639;-56
2022/01/31 07:50:08;;;;;;;16.37;4.78;;;;;;;7.19;43.03;100052.38;5568099;32;33420;-56
2022/01/31 07:53:10;;;;;;;14.00;4.07;;;;;;;7.34;43.21;100065.69;5562599;32;33903;-56
2022/01/31 07:56:15;;;;;;;16.75;4.75;;;;;;;7.20;43.33;100056.63;5568481;32;33620;-57
2022/01/31 07:59:17;;;;;;;19.87;4.72;;;;;;;7.15;43.56;100072.59;5567742;32;33616;-56
2022/01/31 08:02:20;;;;;;;19.92;4.32;;;;;;;7.14;43.64;100071.00;5567577;32;32788;-56
2022/01/31 08:05:23;;;;;;;19.30;4.32;;;;;;;7.07;43.88;100061.41;5566675;32;33686;-56
2022/01/31 08:08:28;;;;;;;20.60;4.43;;;;;;;7.09;43.63;100068.34;5568689;32;33598;-56
2022/01/31 08:11:33;;;;;;;18.45;4.75;;;;;;;7.14;43.24;100068.34;5568511;32;34358;-56
2022/01/31 08:14:36;;;;;;;16.35;5.07;;;;;;;7.11;44.05;100061.69;5568747;32;34191;-56
2022/01/31 08:17:39;;;;;;;15.23;4.82;;;;;;;7.26;43.48;100053.69;5567206;32;33680;-56
2022/01/31 08:20:42;;;;;;;16.48;4.32;;;;;;;7.31;43.43;100044.91;5568028;32;33854;-55
2022/01/31 08:23:44;;;;;;;22.73;4.50;;;;;;;7.32;44.42;100029.69;5568601;32;34232;-55
2022/01/31 08:26:47;;;;;;;21.05;5.20;;;;;;;7.28;44.19;100042.75;5568111;32;33695;-56
2022/01/31 08:29:55;;;;;;;24.12;5.90;;;;;;;7.38;45.07;100037.44;5568257;32;33779;-56
2022/01/31 08:33:14;;;;;;;14.43;4.28;;;;;;;7.32;43.99;100038.50;5566619;32;33553;-56
2022/01/31 08:36:17;;;;;;;20.77;4.57;;;;;;;7.37;44.42;100041.16;5565810;32;33717;-56
2022/01/31 08:39:21;;;;;;;17.98;4.95;;;;;;;7.36;48.86;100036.13;5562546;32;32328;-56
2022/01/31 08:42:24;;;;;;;16.65;5.35;;;;;;;7.52;43.04;100033.16;5568014;32;34337;-56
2022/01/31 08:45:26;;;;;;;23.55;5.93;;;;;;;7.62;43.63;100034.22;5568158;32;33827;-56
2022/01/31 08:48:30;;;;;;;19.42;5.20;;;;;;;7.50;43.97;100027.28;5567441;32;34426;-56
2022/01/31 08:51:32;;;;;;;15.38;5.07;;;;;;;7.40;44.39;100019.31;5567391;32;33593;-56
2022/01/31 08:54:35;;;;;;;15.43;5.22;;;;;;;7.53;44.42;100012.63;5567138;32;33151;-56
2022/01/31 08:57:38;;;;;;;21.10;5.57;;;;;;;7.38;44.17;100012.63;5567698;32;33650;-56
2022/01/31 09:00:42;;;;;;;16.12;5.12;;;;;;;7.34;44.54;100015.03;5567946;32;33667;-56
2022/01/31 09:06:54;;;;;;;19.30;5.50;;;;;;;7.30;44.50;100012.09;5561198;32;34306;-56
2022/01/31 09:09:57;;;;;;;18.52;5.12;;;;;;;7.42;44.58;100000.37;5548436;32;33642;-56
2022/01/31 09:12:59;;;;;;;21.08;5.35;;;;;;;7.33;45.48;100005.44;5547596;32;33603;-56
2022/01/31 09:16:02;;;;;;;14.82;5.07;;;;;;;7.39;44.33;100004.38;5558431;32;34196;-56
2022/01/31 09:19:05;;;;;;;15.10;5.40;;;;;;;7.41;44.34;100012.88;5558939;32;33758;-56
2022/01/31 09:22:07;;;;;;;19.52;4.53;;;;;;;7.55;44.38;100002.50;5564798;32;33705;-56
2022/01/31 09:25:14;;;;;;;14.50;4.45;;;;;;;7.59;47.00;100000.88;5557647;32;33685;-56
2022/01/31 09:28:17;;;;;;;16.05;4.20;;;;;;;7.52;45.73;100003.03;5566386;32;33598;-56
2022/01/31 09:31:20;;;;;;;17.23;4.78;;;;;;;7.52;43.82;100000.37;5566311;32;33632;-55
2022/01/31 09:34:23;;;;;;;20.45;5.60;;;;;;;7.56;43.96;99988.09;5559843;32;32404;-56
2022/01/31 09:37:27;;;;;;;18.05;4.40;;;;;;;7.52;44.08;99979.81;5564902;32;34384;-56
2022/01/31 09:40:29;;;;;;;18.45;4.85;;;;;;;7.84;44.79;99972.53;5565561;32;33405;-56
2022/01/31 09:43:56;;;;;;;17.70;4.10;;;;;;;7.61;43.91;99963.25;5565716;32;34365;-56
2022/01/31 09:47:08;;;;;;;15.43;4.20;;;;;;;7.62;45.07;99954.22;5562635;32;34136;-56
2022/01/31 09:50:13;;;;;;;21.70;4.78;;;;;;;7.59;47.30;99941.41;5559091;32;33527;-56
2022/01/31 09:53:15;;;;;;;19.50;4.20;;;;;;;7.62;44.58;99933.66;5568811;32;32368;-56
2022/01/31 09:56:28;;;;;;;16.35;4.47;;;;;;;7.61;44.42;99928.56;5568262;32;33248;-56
2022/01/31 09:59:30;;;;;;;18.40;4.82;;;;;;;7.77;44.23;99901.56;5569263;32;33578;-56
2022/01/31 10:02:33;;;;;;;19.48;4.70;;;;;;;8.12;44.35;99910.50;5566127;32;34033;-56
2022/01/31 10:05:37;;;;;;;18.23;4.35;;;;;;;8.13;43.98;99895.28;5569147;32;33675;-56
2022/01/31 10:08:39;;;;;;;19.48;4.82;;;;;;;8.05;44.02;99883.31;5566872;32;34270;-56
2022/01/31 10:11:50;;;;;;;11.10;3.95;;;;;;;8.14;43.74;99872.84;5562631;32;34256;-56
2022/01/31 10:18:14;;;;;;;11.48;3.30;;;;;;;8.19;47.71;99870.16;5567975;32;34455;-55
2022/01/31 10:21:57;;;;;;;15.52;3.72;;;;;;;7.95;43.41;99862.81;5565013;32;33687;-55
2022/01/31 10:25:06;;;;;;;17.40;4.30;;;;;;;7.94;42.37;99861.19;5553730;32;35022;-56
2022/01/31 10:28:19;;;;;;;14.55;3.62;;;;;;;8.04;42.45;99854.22;5549962;32;34373;-56
2022/01/31 10:31:22;;;;;;;19.02;4.43;;;;;;;8.01;42.95;99847.56;5566403;32;33586;-56
2022/01/31 10:34:26;;;;;;;17.52;5.95;;;;;;;8.00;42.93;99836.06;5564550;32;33611;-55
2022/01/31 10:37:31;;;;;;;17.45;4.00;;;;;;;8.04;43.28;99836.31;5555899;32;34342;-55
2022/01/31 10:44:45;;;;;;;23.15;4.87;;;;;;;8.11;42.77;99831.50;5568865;31;33669;-56
2022/01/31 10:57:24;;;;;;;17.67;4.20;;;;;;;8.05;42.57;99797.91;5567307;32;34331;-56
2022/01/31 11:00:35;;;;;;;15.15;4.37;;;;;;;8.09;43.65;99792.78;5557873;32;33632;-56
2022/01/31 11:03:37;;;;;;;14.98;4.37;;;;;;;7.98;42.82;99782.19;5564160;32;34290;-56
2022/01/31 11:06:41;;;;;;;12.98;4.35;;;;;;;8.09;42.68;99776.78;5568024;32;33774;-56
2022/01/31 11:09:46;;;;;;;13.98;4.15;;;;;;;8.17;42.70;99773.50;5548912;32;33716;-56
2022/01/31 11:12:48;;;;;;;14.93;3.97;;;;;;;8.12;42.42;99758.34;5555112;32;34290;-56
2022/01/31 11:15:54;;;;;;;18.15;5.12;;;;;;;8.04;42.50;99758.91;5568535;32;33378;-55
2022/01/31 11:19:01;;;;;;;11.47;4.13;;;;;;;8.09;43.40;99755.44;5550463;32;33864;-56
2022/01/31 11:22:09;;;;;;;7.90;3.80;;;;;;;8.22;42.82;99742.22;5561853;32;33751;-56
2022/01/31 11:25:27;;;;;;;14.50;3.45;;;;;;;8.07;42.39;99722.88;5568283;32;33733;-56
2022/01/31 11:28:31;;;;;;;16.65;4.22;;;;;;;7.93;42.37;99715.50;5558248;32;34293;-56
2022/01/31 11:31:38;;;;;;;14.75;3.90;;;;;;;7.89;41.89;99709.13;5555848;32;33754;-55
2022/01/31 11:34:44;;;;;;;12.88;4.50;;;;;;;8.05;44.70;99695.66;5550914;32;33593;-56
2022/01/31 11:37:46;;;;;;;12.97;3.77;;;;;;;8.09;42.65;99684.12;5566203;32;33568;-56
2022/01/31 11:40:51;;;;;;;16.60;3.90;;;;;;;8.10;41.67;99671.59;5551105;32;33782;-56
2022/01/31 11:44:10;;;;;;;14.27;4.00;;;;;;;8.10;41.48;99667.03;5567593;32;34406;-56
2022/01/31 11:47:12;;;;;;;12.55;3.85;;;;;;;8.07;41.77;99677.47;5558544;32;33703;-56
2022/01/31 11:50:17;;;;;;;15.27;4.50;;;;;;;8.01;41.95;99671.38;5568561;32;33739;-56
2022/01/31 11:53:28;;;;;;;15.65;4.15;;;;;;;8.01;41.66;99666.03;5568196;32;33654;-55
2022/01/31 11:56:30;;;;;;;13.93;3.58;;;;;;;7.92;42.88;99649.84;5568371;32;33604;-56
2022/01/31 11:59:37;;;;;;;18.37;5.00;;;;;;;7.97;41.68;99630.31;5568295;32;33629;-56
2022/01/31 12:02:52;;;;;;;;;;;;;;;8.06;42.16;99611.84;5568917;32;34235;-56
2022/01/31 12:05:55;;;;;;;19.33;4.72;;;;;;;8.04;41.73;99638.00;5564893;32;33952;-56
2022/01/31 12:09:06;;;;;;;16.02;3.78;;;;;;;8.07;42.91;99645.44;5566762;32;33227;-56
2022/01/31 12:12:34;;;;;;;10.70;3.53;;;;;;;8.07;43.67;99626.75;5557879;32;33620;-55
2022/01/31 12:19:15;;;;;;;11.90;3.30;;;;;;;8.30;40.79;99651.91;5550620;32;33598;-56
2022/01/31 12:22:46;;;;;;;12.30;3.25;;;;;;;8.18;41.04;99660.31;5568050;32;33725;-56
2022/01/31 12:25:49;;;;;;;13.62;3.92;;;;;;;8.30;42.35;99646.56;5567771;32;33589;-56
2022/01/31 12:28:58;;;;;;;17.67;4.18;;;;;;;8.28;41.71;99646.03;5567339;32;33731;-56
2022/01/31 12:32:18;;;;;;;10.88;3.70;;;;;;;8.32;43.35;99642.53;5567025;32;33752;-56
2022/01/31 12:35:34;;;;;;;15.65;4.12;;;;;;;8.40;41.48;99639.28;5566836;32;33113;-56
2022/01/31 12:38:36;;;;;;;14.73;5.07;;;;;;;8.11;41.95;99628.59;5561892;32;33770;-56
2022/01/31 12:41:38;;;;;;;13.88;4.35;;;;;;;8.27;43.49;99618.53;5568360;32;34253;-56
2022/01/31 12:44:42;;;;;;;19.08;4.37;;;;;;;8.39;42.59;99615.53;5567947;32;34423;-56
2022/01/31 12:48:09;;;;;;;14.02;4.97;;;;;;;8.54;45.03;99587.84;5568065;32;33817;-56
2022/01/31 12:51:15;;;;;;;15.95;4.40;;;;;;;8.77;41.58;99592.34;5566930;32;33735;-56
2022/01/31 12:54:21;;;;;;;13.43;4.10;;;;;;;8.84;42.05;99587.47;5567764;32;34401;-55
2022/01/31 12:57:24;;;;;;;;;;;;;;;8.74;42.39;99584.13;5554740;32;33699;-56
2022/01/31 13:00:40;;;;;;;14.05;4.10;;;;;;;8.57;42.19;99580.03;5547864;32;33967;-57
2022/01/31 13:04:19;;;;;;;15.45;5.37;;;;;;;8.51;42.06;99586.56;5548038;32;33783;-56
2022/01/31 13:07:22;;;;;;;19.42;4.80;;;;;;;8.62;42.36;99577.31;5548351;32;33760;-56
2022/01/31 13:10:40;;;;;;;14.43;4.35;;;;;;;8.55;43.80;99571.53;5548147;32;33459;-56
2022/01/31 13:13:42;;;;;;;13.95;4.55;;;;;;;8.54;42.05;99563.78;5547717;32;33623;-56
2022/01/31 13:16:57;;;;;;;12.55;3.65;;;;;;;8.52;44.07;99569.44;5548087;32;34480;-56
2022/01/31 13:20:02;;;;;;;12.68;3.85;;;;;;;8.83;47.53;99553.00;5548022;32;33991;-56
2022/01/31 13:23:04;;;;;;;13.52;3.78;;;;;;;8.93;43.33;99550.97;5550229;32;33554;-56
2022/01/31 13:26:10;;;;;;;12.75;4.05;;;;;;;8.90;41.78;99545.41;5550210;32;34314;-56
2022/01/31 13:29:45;;;;;;;16.42;4.30;;;;;;;8.76;42.77;99529.31;5550550;32;34357;-56
2022/01/31 13:32:48;;;;;;;13.00;4.20;;;;;;;8.73;41.84;99529.09;5558579;32;36565;-56
2022/01/31 13:35:51;;;;;;;17.87;3.92;;;;;;;8.69;41.52;99532.34;5570141;32;33610;-56
2022/01/31 13:38:53;;;;;;;14.57;4.50;;;;;;;8.68;43.37;99532.62;5570046;32;34241;-56
2022/01/31 13:41:56;;;;;;;12.40;4.43;;;;;;;8.94;41.88;99525.06;5569465;32;33685;-56
2022/01/31 13:44:59;;;;;;;15.80;4.55;;;;;;;8.93;50.60;99512.75;5568605;31;34442;-56
2022/01/31 13:48:12;;;;;;;17.10;4.65;;;;;;;8.83;42.53;99508.34;5568518;32;33694;-56
2022/01/31 13:51:32;;;;;;;13.82;4.50;;;;;;;8.96;41.94;99520.19;5567634;32;33600;-56
2022/01/31 13:54:35;;;;;;;15.65;4.60;;;;;;;8.61;42.35;99508.13;5569999;32;33679;-56
2022/01/31 13:57:37;;;;;;;14.32;4.47;;;;;;;8.57;41.57;99509.78;5570072;32;33598;-56
2022/01/31 14:00:44;;;;;;;10.80;4.15;;;;;;;8.58;41.74;99508.72;5569799;32;33833;-56
2022/01/31 14:03:47;;;;;;;13.73;5.07;;;;;;;8.53;42.45;99506.91;5569780;32;33382;-56
2022/01/31 14:06:49;;;;;;;18.85;5.25;;;;;;;8.45;42.33;99508.34;5570039;32;33447;-55
2022/01/31 14:09:53;;;;;;;16.87;5.62;;;;;;;8.53;42.17;99514.13;5569779;32;33887;-56
2022/01/31 14:13:00;;;;;;;15.40;4.55;;;;;;;8.51;43.17;99514.44;5569732;32;33631;-56
2022/01/31 14:16:04;;;;;;;11.35;4.75;;;;;;;8.44;43.29;99520.13;5569592;32;33219;-56
2022/01/31 14:19:15;;;;;;;14.87;4.22;;;;;;;8.49;43.67;99507.78;5569573;32;33692;-56
2022/01/31 14:22:19;;;;;;;14.13;4.28;;;;;;;8.54;44.86;99513.81;5569664;32;33978;-56
2022/01/31 14:25:21;;;;;;;14.98;4.25;;;;;;;8.36;44.69;99510.03;5569860;32;33627;-56
2022/01/31 14:28:34;;;;;;;13.90;5.00;;;;;;;8.56;49.84;99503.66;5569234;32;33642;-55
2022/01/31 14:31:42;;;;;;;14.52;4.93;;;;;;;8.37;45.00;99500.13;5568767;32;33647;-56
2022/01/31 14:35:08;;;;;;;12.57;4.85;;;;;;;8.35;43.93;99487.09;5569089;32;34028;-56
2022/01/31 14:38:13;;;;;;;12.07;4.70;;;;;;;8.47;42.85;99490.13;5567632;32;34435;-55
2022/01/31 14:41:49;;;;;;;13.10;3.95;;;;;;;8.40;47.15;99479.03;5567453;32;34421;-55
2022/01/31 14:48:16;;;;;;;14.13;4.10;;;;;;;8.25;44.31;99471.19;5568244;32;33714;-56
2022/01/31 14:51:26;;;;;;;7.65;3.60;;;;;;;8.55;45.38;99466.56;5567282;32;33670;-56
2022/01/31 14:54:29;;;;;;;12.60;4.60;;;;;;;8.61;51.75;99468.06;5567157;32;33787;-56
2022/01/31 14:57:31;;;;;;;13.62;4.07;;;;;;;8.62;43.64;99462.44;5567269;32;34176;-56
2022/01/31 15:00:34;;;;;;;13.90;4.10;;;;;;;8.63;47.13;99469.34;5566470;32;33439;-56
2022/01/31 15:03:37;;;;;;;15.00;3.90;;;;;;;8.64;43.83;99459.47;5566666;32;34124;-56
2022/01/31 15:06:40;;;;;;;14.25;4.20;;;;;;;8.50;43.27;99471.97;5567554;32;34209;-55
2022/01/31 15:09:42;;;;;;;16.35;4.60;;;;;;;8.60;43.19;99469.94;5567799;32;33681;-55
2022/01/31 15:12:45;;;;;;;10.85;4.03;;;;;;;8.34;44.25;99464.12;5568706;32;33411;-56
2022/01/31 15:15:53;;;;;;;14.02;4.62;;;;;;;8.57;48.03;99462.50;5569007;32;33657;-56
2022/01/31 15:18:56;;;;;;;14.00;4.68;;;;;;;8.48;43.95;99456.22;5555345;32;34548;-56
2022/01/31 15:22:19;;;;;;;14.80;4.62;;;;;;;8.46;43.63;99455.72;5567290;32;34390;-56
2022/01/31 15:25:21;;;;;;;16.85;5.50;;;;;;;8.44;48.38;99449.84;5568654;31;34179;-56
2022/01/31 15:28:23;;;;;;;14.98;6.32;;;;;;;8.42;43.87;99457.38;5568702;32;34287;-56
2022/01/31 15:31:26;;;;;;;12.65;5.22;;;;;;;8.45;43.01;99454.94;5568755;32;33373;-56
2022/01/31 15:34:46;;;;;;;18.62;6.07;;;;;;;8.34;46.47;99458.78;5567421;32;34287;-55
2022/01/31 15:37:48;;;;;;;14.23;4.75;;;;;;;8.32;44.58;99460.94;5567955;32;33265;-55
2022/01/31 15:40:55;;;;;;;16.70;5.18;;;;;;;8.33;46.80;99465.19;5568421;32;34250;-56
2022/01/31 15:43:58;;;;;;;16.00;5.75;;;;;;;8.30;44.89;99457.75;5567736;32;33702;-56
2022/01/31 15:47:01;;;;;;;16.37;5.65;;;;;;;8.29;43.95;99474.09;5568906;32;34580;-56
2022/01/31 15:50:03;;;;;;;19.23;6.32;;;;;;;8.27;44.13;99466.34;5568219;32;34351;-56
2022/01/31 15:53:12;;;;;;;16.25;5.82;;;;;;;8.10;44.18;99463.38;5568827;32;33867;-56
2022/01/31 15:56:15;;;;;;;15.60;5.97;;;;;;;8.04;44.17;99465.28;5568779;32;34366;-56
2022/01/31 15:59:17;;;;;;;14.27;6.22;;;;;;;7.95;45.34;99475.81;5568847;32;33675;-56
2022/01/31 16:02:19;;;;;;;17.58;6.10;;;;;;;7.99;44.55;99476.84;5568691;32;34304;-56
2022/01/31 16:05:22;;;;;;;21.60;7.55;;;;;;;8.08;44.65;99478.84;5568599;32;33681;-56
2022/01/31 16:08:24;;;;;;;17.10;7.30;;;;;;;8.09;45.21;99473.25;5568816;32;34405;-56
2022/01/31 16:11:26;;;;;;;17.80;6.85;;;;;;;7.97;44.53;99475.53;5568783;32;33759;-56
2022/01/31 16:14:48;;;;;;;19.30;7.18;;;;;;;7.77;44.99;99468.53;5569480;32;33954;-56
2022/01/31 16:17:51;;;;;;;19.35;7.60;;;;;;;7.95;44.71;99475.03;5569024;32;34318;-56
2022/01/31 16:20:53;;;;;;;19.48;6.90;;;;;;;7.93;45.30;99474.50;5569308;32;34276;-56
2022/01/31 16:23:55;;;;;;;16.17;6.28;;;;;;;7.73;45.25;99478.19;5568713;32;33613;-56
2022/01/31 16:26:57;;;;;;;19.17;8.13;;;;;;;7.86;45.21;99474.06;5568799;32;34311;-56
2022/01/31 16:30:00;;;;;;;12.82;6.15;;;;;;;7.67;45.50;99471.31;5568928;32;34348;-56
2022/01/31 16:33:02;;;;;;;15.55;6.68;;;;;;;7.70;45.96;99484.88;5568956;32;34039;-56
2022/01/31 16:36:04;;;;;;;13.52;6.25;;;;;;;7.57;45.85;99482.87;5568767;32;33700;-56
2022/01/31 16:39:06;;;;;;;23.20;7.05;;;;;;;7.55;45.80;99487.72;5568652;32;33740;-56
2022/01/31 16:42:09;;;;;;;19.17;7.85;;;;;;;7.50;48.36;99487.75;5568641;32;33638;-56
2022/01/31 16:45:14;;;;;;;16.15;6.65;;;;;;;7.68;45.65;99495.06;5568435;32;33745;-56
2022/01/31 16:48:17;;;;;;;16.60;5.90;;;;;;;7.72;45.61;99485.41;5568624;32;34316;-56
2022/01/31 16:51:19;;;;;;;15.43;5.60;;;;;;;7.75;45.44;99484.84;5568415;32;33655;-56
2022/01/31 16:54:22;;;;;;;16.40;5.85;;;;;;;7.63;45.78;99492.44;5568103;32;33725;-56
